< Typhoon 198315 1983 Season Typhoon 198317 >
Typhoon 198316 (LEX)
General InformationTrack Information on Google MapsDetailed Wind InformationList of All Images || Disaster Info.ResourceGoogle EarthGE AnimationAtom FeedGeoJSON
Detalied Best Track (Time Zone = UTC)
Year Month Day Hour Lat. Long. Pressure (hPa) Wind (kt) Class Image Chart
1983 10 19 12 14.2 130.3 1004 0 2 Image Chart
1983 10 19 18 14.8 128.4 1004 0 2 Image Chart
1983 10 20 00 15.1 126.9 1004 0 2 Image Chart
1983 10 20 06 15.6 125.4 1004 0 2 Image Chart
1983 10 20 12 16.0 123.7 1004 0 2 Image Chart
1983 10 20 18 16.2 122.5 1004 0 2 Image Chart
1983 10 21 00 16.5 121.2 1004 0 2 Image Chart
1983 10 21 06 16.8 119.8 1004 0 2 Image Chart
1983 10 21 12 16.9 118.6 1002 0 2 Image Chart
1983 10 21 18 17.0 117.5 1000 0 2 Image Chart
1983 10 22 00 16.9 116.5 996 40 3 Image Chart
1983 10 22 06 16.9 115.7 996 40 3 Image Chart
1983 10 22 12 17.0 115.2 996 40 3 Image Chart
1983 10 22 18 17.2 114.8 996 40 3 Image Chart
1983 10 23 00 17.5 114.5 996 40 3 Image Chart
1983 10 23 06 17.5 114.3 992 40 3 Image Chart
1983 10 23 12 17.5 114.1 992 40 3 Image Chart
1983 10 23 18 17.5 113.9 992 40 3 Image Chart
1983 10 24 00 17.5 113.6 992 40 3 Image Chart
1983 10 24 06 17.4 113.2 990 45 3 Image Chart
1983 10 24 12 17.4 112.7 985 50 4 Image Chart
1983 10 24 18 17.3 112.1 985 50 4 Image Chart
1983 10 25 00 17.2 111.4 985 50 4 Image Chart
1983 10 25 06 17.2 110.6 985 50 4 Image Chart
1983 10 25 12 17.3 109.7 985 50 4 Image Chart
1983 10 25 18 17.4 108.8 985 50 4 Image Chart
1983 10 26 00 17.5 107.8 985 50 4 Image Chart
1983 10 26 06 17.7 106.7 990 45 3 Image Chart
1983 10 26 12 18.0 105.5 996 35 3 Image Chart
1983 10 26 18 18.4 104.2 1004 0 2 Image Chart
1983 10 27 00 19.0 103.0 1012 0 2 Image Chart
Japan Meteorological Agency Best Track Data | Correction Date : 1992-10-21
< Typhoon 198315 1983 Season Typhoon 198317 >

Help